Whittaker, Michigan
Current Conditions -  °F | °C
As of 5:53 AM on Monday 20 Oct 2014 (Local Time) from KYIP Reporting Station
Overcast Overcast  
Wind Chill: 50°   Ceiling: 4400
Heat Index: 50°   Visibility: 10mi
Dew Point: 42°   Wind: 10mph
Humidity: 74%   Direction: 200°SSW
Pressure: 29.89"   Gusts: NA
Location:  42.13°N, 83.6°W
Report Text: KYIP 200953Z AUTO 20009KT 10SM BKN044 OVC070 10/06 A2989 RMK AO2 RAE23 SLP120 P0003 T01000056 TSNO
Loading
Personal Weather Stations






























Interactive Weather Map
Tropical Storm Tracking
New forecast layout! Learn more

10-Day Weather Forecast

Advertisements
Track Severe Weather on mobile